createdAt,value
2023-08-02T00:02:09.276Z,1.17
2023-08-02T00:04:36.015Z,2.10
2023-08-02T00:07:03.630Z,2.22
2023-08-02T00:09:30.826Z,2.85
2023-08-02T00:11:57.703Z,1.47
2023-08-02T00:14:24.489Z,1.20
2023-08-02T00:16:52.038Z,1.48
2023-08-02T00:19:18.918Z,1.33
2023-08-02T00:21:45.748Z,2.15
2023-08-02T00:24:12.597Z,2.07
2023-08-02T00:26:41.191Z,2.42
2023-08-02T00:29:08.265Z,2.90
2023-08-02T00:31:34.952Z,1.15
2023-08-02T00:34:01.691Z,2.67
2023-08-02T00:36:28.485Z,2.50
2023-08-02T00:38:55.649Z,2.58
2023-08-02T00:41:22.531Z,3.00
2023-08-02T00:43:49.262Z,3.42
2023-08-02T00:46:18.482Z,2.70
2023-08-02T00:48:47.238Z,2.20
2023-08-02T00:51:17.550Z,1.42
2023-08-02T00:53:45.064Z,2.67
2023-08-02T00:56:12.506Z,2.15
2023-08-02T00:58:39.364Z,2.53
2023-08-02T01:01:09.144Z,1.37
2023-08-02T01:03:35.954Z,2.10
2023-08-02T01:06:09.998Z,1.83
2023-08-02T01:08:40.050Z,1.75
2023-08-02T01:11:27.272Z,1.17
2023-08-02T01:13:55.165Z,2.07
2023-08-02T01:16:24.881Z,1.92
2023-08-02T01:19:01.932Z,2.42
2023-08-02T01:21:29.233Z,1.48
2023-08-02T01:23:55.954Z,1.63
2023-08-02T01:26:22.748Z,2.07
2023-08-02T01:28:53.626Z,1.65
2023-08-02T01:31:22.975Z,1.83
2023-08-02T01:33:53.931Z,1.67
2023-08-02T01:36:21.018Z,2.13
2023-08-02T01:38:47.736Z,1.70
2023-08-02T01:41:14.540Z,2.42
2023-08-02T01:43:41.290Z,2.58
2023-08-02T01:46:08.105Z,3.35
2023-08-02T01:48:34.990Z,0.80
2023-08-02T01:51:01.711Z,1.47
2023-08-02T01:53:28.474Z,1.83
2023-08-02T01:55:55.191Z,1.48
2023-08-02T01:58:21.968Z,1.58
2023-08-02T02:00:48.766Z,1.20
2023-08-02T02:03:15.537Z,2.33
2023-08-02T02:05:42.307Z,1.75
2023-08-02T02:08:09.000Z,1.52
2023-08-02T02:10:35.742Z,0.90
2023-08-02T02:13:02.500Z,2.22
2023-08-02T02:15:29.344Z,0.87
2023-08-02T02:17:56.172Z,1.75
2023-08-02T02:20:22.949Z,1.10
2023-08-02T02:22:49.633Z,1.98
2023-08-02T02:25:16.397Z,0.80
2023-08-02T02:27:43.151Z,1.13
2023-08-02T02:30:10.340Z,1.30
2023-08-02T02:32:37.090Z,1.80
2023-08-02T02:35:04.335Z,1.08
2023-08-02T02:37:31.038Z,1.17
2023-08-02T02:39:57.786Z,1.27
2023-08-02T02:42:24.483Z,1.33
2023-08-02T02:44:51.214Z,1.58
2023-08-02T02:47:17.910Z,1.42
2023-08-02T02:49:44.657Z,1.83
2023-08-02T02:52:11.535Z,1.30
2023-08-02T02:54:38.700Z,1.15
2023-08-02T02:57:05.632Z,1.00
2023-08-02T02:59:33.521Z,1.33
2023-08-02T03:02:00.717Z,1.20
2023-08-02T03:04:28.364Z,1.17
2023-08-02T03:06:55.279Z,1.92
2023-08-02T03:09:22.065Z,1.65
2023-08-02T03:11:48.816Z,2.55
2023-08-02T03:14:15.586Z,1.35
2023-08-02T03:16:44.888Z,1.10
2023-08-02T03:19:12.748Z,0.85
2023-08-02T03:21:39.879Z,0.80
2023-08-02T03:24:06.954Z,0.68
2023-08-02T03:26:33.709Z,0.77
2023-08-02T03:29:00.538Z,0.90
2023-08-02T03:31:27.353Z,1.10
2023-08-02T03:33:54.147Z,2.75
2023-08-02T03:36:21.023Z,1.20
2023-08-02T03:38:47.758Z,2.17
2023-08-02T03:41:14.507Z,1.97
2023-08-02T03:43:41.277Z,0.93
2023-08-02T03:46:08.076Z,1.25
2023-08-02T03:48:35.058Z,1.02
2023-08-02T03:51:02.465Z,0.98
2023-08-02T03:53:30.765Z,1.70
2023-08-02T03:55:57.631Z,1.20
2023-08-02T03:58:24.363Z,1.48
2023-08-02T04:00:52.285Z,0.80
2023-08-02T04:03:18.983Z,0.80
2023-08-02T04:05:45.704Z,1.53
2023-08-02T04:08:12.427Z,1.30
2023-08-02T04:10:39.176Z,0.93
2023-08-02T04:13:05.932Z,1.52
2023-08-02T04:15:35.550Z,1.58
2023-08-02T04:18:03.316Z,1.93
2023-08-02T04:20:30.894Z,1.83
2023-08-02T04:22:57.667Z,1.27
2023-08-02T04:25:24.477Z,1.25
2023-08-02T04:27:51.205Z,1.80
2023-08-02T04:30:17.932Z,1.47
2023-08-02T04:32:44.683Z,2.38
2023-08-02T04:35:11.464Z,1.08
2023-08-02T04:37:38.212Z,2.53
2023-08-02T04:40:05.545Z,1.52
2023-08-02T04:42:32.294Z,1.33
2023-08-02T04:44:59.081Z,2.40
2023-08-02T04:47:25.855Z,3.15
2023-08-02T04:49:52.612Z,1.40
2023-08-02T04:52:20.033Z,2.17
2023-08-02T04:54:47.492Z,1.87
2023-08-02T04:57:14.211Z,2.63
2023-08-02T04:59:40.932Z,3.15
2023-08-02T05:02:07.671Z,2.20
2023-08-02T05:04:34.590Z,1.83
2023-08-02T05:07:01.329Z,2.17
2023-08-02T05:09:28.004Z,1.35
2023-08-02T05:11:55.964Z,2.08
2023-08-02T05:14:22.653Z,2.42
2023-08-02T05:16:49.383Z,2.80
2023-08-02T05:19:16.178Z,1.63
2023-08-02T05:21:43.128Z,1.50
2023-08-02T05:24:10.049Z,2.35
2023-08-02T05:26:36.749Z,2.67
2023-08-02T05:29:03.597Z,2.50
2023-08-02T05:31:30.387Z,1.93
2023-08-02T05:33:57.145Z,1.52
2023-08-02T05:36:23.849Z,1.77
2023-08-02T05:38:50.567Z,1.95
2023-08-02T05:41:17.266Z,2.88
2023-08-02T05:43:45.990Z,3.53
2023-08-02T05:46:12.857Z,2.35
2023-08-02T05:48:39.757Z,5.35
2023-08-02T05:51:06.638Z,3.25
2023-08-02T05:53:33.407Z,3.67
2023-08-02T05:56:00.252Z,2.53
2023-08-02T05:58:27.012Z,2.97
2023-08-02T06:00:53.733Z,3.00
2023-08-02T06:03:20.499Z,3.03
2023-08-02T06:05:49.495Z,3.63
2023-08-02T06:08:16.207Z,2.37
2023-08-02T06:10:43.009Z,3.22
2023-08-02T06:13:09.761Z,3.28
2023-08-02T06:15:36.553Z,2.65
2023-08-02T06:18:03.526Z,3.67
2023-08-02T06:20:30.251Z,2.10
2023-08-02T06:22:56.957Z,2.90
2023-08-02T06:25:23.945Z,5.03
2023-08-02T06:27:50.658Z,3.00
2023-08-02T06:30:17.379Z,3.63
2023-08-02T06:32:44.171Z,2.90
2023-08-02T06:35:12.333Z,2.35
2023-08-02T06:37:39.020Z,2.75
2023-08-02T06:40:06.289Z,1.75
2023-08-02T06:42:33.037Z,1.60
2023-08-02T06:44:59.911Z,1.37
2023-08-02T06:47:26.870Z,3.45
2023-08-02T06:49:53.790Z,1.63
2023-08-02T06:52:20.557Z,1.70
2023-08-02T06:54:47.369Z,2.15
2023-08-02T06:57:14.155Z,2.33
2023-08-02T06:59:40.972Z,2.38
2023-08-02T07:02:08.496Z,4.10
2023-08-02T07:04:35.374Z,2.15
2023-08-02T07:07:02.136Z,3.13
2023-08-02T07:09:31.068Z,2.57
2023-08-02T07:11:58.078Z,2.70
2023-08-02T07:14:24.837Z,2.60
2023-08-02T07:16:51.560Z,2.78
2023-08-02T07:19:18.362Z,2.17
2023-08-02T07:21:45.565Z,2.73
2023-08-02T07:24:12.638Z,3.08
2023-08-02T07:26:39.685Z,2.03
2023-08-02T07:29:06.485Z,2.30
2023-08-02T07:31:33.277Z,2.25
2023-08-02T07:34:00.098Z,2.10
2023-08-02T07:36:26.934Z,2.00
2023-08-02T07:38:53.861Z,2.08
2023-08-02T07:41:22.506Z,2.60
2023-08-02T07:43:49.941Z,2.35
2023-08-02T07:46:20.846Z,2.50
2023-08-02T07:48:47.785Z,2.53
2023-08-02T07:51:14.641Z,2.17
2023-08-02T07:53:41.372Z,2.53
2023-08-02T07:56:08.508Z,1.92
2023-08-02T07:58:35.378Z,2.43
2023-08-02T08:01:06.864Z,2.88
2023-08-02T08:03:34.141Z,2.22
2023-08-02T08:06:01.229Z,2.10
2023-08-02T08:08:28.128Z,2.03
2023-08-02T08:10:55.260Z,2.30
2023-08-02T08:13:23.422Z,2.00
2023-08-02T08:15:50.318Z,1.85
2023-08-02T08:18:17.090Z,2.08
2023-08-02T08:20:43.904Z,2.10
2023-08-02T08:23:10.821Z,1.80
2023-08-02T08:25:37.577Z,2.10
2023-08-02T08:28:05.588Z,2.15
2023-08-02T08:30:32.397Z,2.20
2023-08-02T08:32:59.264Z,1.90
2023-08-02T08:35:26.139Z,2.17
2023-08-02T08:37:54.193Z,1.80
2023-08-02T08:40:21.543Z,1.67
2023-08-02T08:42:52.755Z,2.08
2023-08-02T08:45:21.093Z,1.90
2023-08-02T08:47:48.653Z,1.70
2023-08-02T08:50:16.689Z,1.52
2023-08-02T08:52:46.387Z,2.33
2023-08-02T08:55:17.235Z,1.80
2023-08-02T08:57:46.702Z,1.77
2023-08-02T09:00:17.645Z,1.70
2023-08-02T09:02:45.701Z,2.00
2023-08-02T09:05:13.004Z,1.80
2023-08-02T09:07:39.819Z,2.08
2023-08-02T09:10:07.540Z,1.80
2023-08-02T09:12:45.868Z,2.07
2023-08-02T09:15:14.557Z,1.67
2023-08-02T09:17:49.412Z,1.73
2023-08-02T09:20:17.553Z,1.80
2023-08-02T09:22:44.413Z,1.70
2023-08-02T09:25:28.501Z,2.80
2023-08-02T09:27:57.980Z,2.00
2023-08-02T09:30:29.860Z,1.80
2023-08-02T09:33:14.918Z,1.90
2023-08-02T09:35:48.921Z,2.05
2023-08-02T09:38:17.469Z,3.70
2023-08-02T09:41:26.305Z,2.92
2023-08-02T09:43:35.237Z,1.80
2023-08-02T09:46:02.239Z,2.03
2023-08-02T09:48:37.037Z,1.70
2023-08-02T09:51:04.936Z,1.60
2023-08-02T09:53:32.352Z,1.90
2023-08-02T09:56:00.146Z,1.88
2023-08-02T09:58:27.161Z,2.03
2023-08-02T10:00:54.448Z,1.90
2023-08-02T10:03:26.044Z,1.67
2023-08-02T10:05:55.535Z,1.98
2023-08-02T10:08:23.259Z,2.17
2023-08-02T10:10:52.040Z,1.70
2023-08-02T10:13:22.988Z,2.30
2023-08-02T10:15:53.117Z,1.90
2023-08-02T10:18:20.488Z,2.30
2023-08-02T10:20:47.722Z,2.17
2023-08-02T10:23:14.668Z,2.30
2023-08-02T10:25:42.676Z,2.15
2023-08-02T10:28:09.842Z,3.00
2023-08-02T10:30:36.906Z,2.75
2023-08-02T10:33:14.962Z,1.90
2023-08-02T10:36:02.344Z,3.03
2023-08-02T10:38:48.287Z,2.00
2023-08-02T10:41:26.535Z,2.00
2023-08-02T10:43:54.173Z,1.98
2023-08-02T10:46:29.038Z,2.00
2023-08-02T10:48:58.106Z,2.17
2023-08-02T10:51:27.899Z,2.20
2023-08-02T10:54:15.738Z,2.30
2023-08-02T10:56:59.221Z,2.10
2023-08-02T10:59:26.225Z,2.70
2023-08-02T11:02:09.073Z,2.28
2023-08-02T11:04:38.831Z,1.88
2023-08-02T11:07:17.381Z,1.83
2023-08-02T11:09:44.283Z,2.28
2023-08-02T11:12:19.040Z,1.73
2023-08-02T11:14:48.044Z,1.70
2023-08-02T11:17:32.300Z,1.73
2023-08-02T11:22:37.763Z,2.13
2023-08-02T11:25:07.936Z,2.10
2023-08-02T11:30:08.896Z,2.20
2023-08-02T11:32:43.650Z,2.90
2023-08-02T11:35:15.811Z,2.90
2023-08-02T11:37:42.590Z,2.85
2023-08-02T11:40:25.186Z,2.30
2023-08-02T11:42:55.343Z,2.17
2023-08-02T11:45:32.857Z,2.83
2023-08-02T11:48:09.382Z,3.08
2023-08-02T11:50:38.317Z,2.80
2023-08-02T11:53:10.252Z,2.70
2023-08-02T11:55:38.017Z,3.30
2023-08-02T11:58:06.318Z,3.60
2023-08-02T12:00:37.785Z,3.70
2023-08-02T12:03:15.417Z,3.88
2023-08-02T12:05:44.643Z,4.70
2023-08-02T12:08:16.303Z,4.40
2023-08-02T12:10:44.068Z,4.80
2023-08-02T12:13:16.928Z,4.90
2023-08-02T12:16:00.220Z,5.50
2023-08-02T12:18:27.294Z,5.75
2023-08-02T12:20:54.125Z,5.28
2023-08-02T12:23:50.234Z,4.90
2023-08-02T12:26:31.074Z,5.15
2023-08-02T12:28:58.094Z,4.50
2023-08-02T12:31:25.162Z,5.10
2023-08-02T12:33:52.056Z,4.90
2023-08-02T12:36:29.426Z,5.20
2023-08-02T12:38:59.462Z,4.60
2023-08-02T12:41:26.502Z,5.40
2023-08-02T12:43:53.307Z,5.75
2023-08-02T12:46:20.981Z,6.47
2023-08-02T12:48:48.291Z,5.03
2023-08-02T12:51:15.249Z,5.60
2023-08-02T12:53:42.316Z,5.93
2023-08-02T12:56:09.424Z,5.90
2023-08-02T12:58:36.183Z,4.90
2023-08-02T13:01:02.921Z,5.32
2023-08-02T13:03:29.821Z,6.90
2023-08-02T13:05:56.727Z,6.65
2023-08-02T13:08:23.565Z,6.97
2023-08-02T13:10:50.563Z,7.65
2023-08-02T13:13:18.334Z,7.50
2023-08-02T13:15:46.721Z,7.25
2023-08-02T13:18:13.580Z,7.75
2023-08-02T13:20:40.398Z,7.85
2023-08-02T13:23:07.130Z,7.85
2023-08-02T13:25:35.038Z,8.30
2023-08-02T13:28:06.133Z,8.23
2023-08-02T13:30:32.954Z,8.50
2023-08-02T13:33:00.210Z,7.93
2023-08-02T13:35:26.962Z,9.52
2023-08-02T13:37:53.682Z,9.82
2023-08-02T13:40:20.442Z,8.82
2023-08-02T13:42:47.192Z,9.75
2023-08-02T13:45:13.899Z,9.27
2023-08-02T13:47:40.702Z,8.30
2023-08-02T13:50:07.755Z,9.35
2023-08-02T13:52:35.044Z,9.82
2023-08-02T13:55:02.641Z,8.40
2023-08-02T13:57:29.402Z,6.25
2023-08-02T13:59:56.141Z,5.53
2023-08-02T14:02:22.950Z,5.90
2023-08-02T14:04:50.158Z,7.80
2023-08-02T14:07:17.152Z,7.65
2023-08-02T14:09:43.850Z,8.35
2023-08-02T14:12:10.671Z,9.00
2023-08-02T14:14:37.481Z,9.32
2023-08-02T14:17:04.364Z,8.90
2023-08-02T14:19:31.062Z,9.32
2023-08-02T14:21:57.779Z,9.65
2023-08-02T14:24:26.349Z,9.47
2023-08-02T14:26:53.243Z,10.40
2023-08-02T14:29:19.962Z,11.25
2023-08-02T14:31:46.906Z,9.50
2023-08-02T14:34:13.610Z,7.30
2023-08-02T14:36:40.758Z,8.35
2023-08-02T14:39:07.767Z,7.22
2023-08-02T14:41:34.516Z,5.53
2023-08-02T14:44:01.338Z,5.13
2023-08-02T14:46:28.136Z,6.78
2023-08-02T14:48:54.861Z,6.38
2023-08-02T14:51:21.605Z,6.40
2023-08-02T14:53:52.265Z,7.72
2023-08-02T14:56:21.421Z,6.38
2023-08-02T14:58:48.191Z,6.90
2023-08-02T15:01:14.967Z,7.78
2023-08-02T15:03:41.788Z,6.90
2023-08-02T15:06:08.778Z,7.50
2023-08-02T15:08:35.589Z,6.70
2023-08-02T15:11:02.616Z,6.15
2023-08-02T15:13:29.427Z,4.78
2023-08-02T15:15:56.146Z,4.00
2023-08-02T15:18:23.026Z,3.10
2023-08-02T15:20:50.225Z,2.70
2023-08-02T15:23:16.974Z,2.40
2023-08-02T15:25:43.712Z,2.38
2023-08-02T15:28:10.623Z,2.23
2023-08-02T15:30:37.340Z,2.30
2023-08-02T15:33:04.119Z,2.10
2023-08-02T15:35:32.953Z,1.80
2023-08-02T15:37:59.735Z,1.90
2023-08-02T15:40:26.501Z,1.60
2023-08-02T15:42:53.219Z,1.85
2023-08-02T15:45:20.346Z,2.00
2023-08-02T15:47:47.165Z,1.50
2023-08-02T15:50:13.926Z,1.77
2023-08-02T15:52:40.630Z,1.67
2023-08-02T15:55:07.762Z,1.60
2023-08-02T15:57:34.505Z,1.30
2023-08-02T16:00:01.260Z,1.90
2023-08-02T16:02:28.140Z,1.60
2023-08-02T16:04:54.928Z,1.30
2023-08-02T16:07:22.152Z,1.50
2023-08-02T16:09:48.957Z,1.20
2023-08-02T16:12:17.967Z,1.63
2023-08-02T16:14:46.091Z,1.60
2023-08-02T16:17:12.823Z,1.40
2023-08-02T16:19:40.473Z,2.10
2023-08-02T16:22:07.247Z,1.27
2023-08-02T16:24:34.299Z,1.17
2023-08-02T16:27:01.304Z,1.00
2023-08-02T16:29:28.275Z,1.10
2023-08-02T16:31:55.007Z,1.30
2023-08-02T16:34:22.022Z,2.35
2023-08-02T16:36:48.855Z,1.65
2023-08-02T16:39:16.758Z,1.30
2023-08-02T16:41:43.889Z,1.00
2023-08-02T16:44:10.834Z,1.15
2023-08-02T16:46:37.620Z,1.00
2023-08-02T16:49:05.354Z,1.40
2023-08-02T16:51:32.270Z,1.23
2023-08-02T16:53:59.140Z,2.00
2023-08-02T16:56:26.652Z,2.00
2023-08-02T16:58:53.388Z,1.05
2023-08-02T17:01:20.141Z,1.38
2023-08-02T17:03:46.947Z,1.30
2023-08-02T17:06:14.113Z,1.07
2023-08-02T17:08:41.000Z,2.85
2023-08-02T17:11:07.964Z,0.80
2023-08-02T17:13:34.697Z,1.10
2023-08-02T17:16:03.965Z,0.90
2023-08-02T17:18:30.865Z,1.30
2023-08-02T17:20:57.883Z,1.10
2023-08-02T17:23:24.645Z,1.60
2023-08-02T17:25:51.361Z,0.95
2023-08-02T17:28:18.074Z,1.17
2023-08-02T17:30:46.583Z,0.90
2023-08-02T17:33:13.695Z,1.00
2023-08-02T17:35:40.531Z,1.35
2023-08-02T17:38:07.283Z,1.55
2023-08-02T17:40:34.043Z,0.93
2023-08-02T17:43:00.852Z,1.30
2023-08-02T17:45:27.939Z,0.88
2023-08-02T17:47:55.243Z,0.80
2023-08-02T17:50:22.035Z,0.85
2023-08-02T17:52:48.841Z,2.00
2023-08-02T17:55:15.661Z,0.90
2023-08-02T17:57:42.393Z,0.80
2023-08-02T18:00:09.624Z,1.25
2023-08-02T18:02:36.387Z,1.05
2023-08-02T18:05:04.429Z,1.42
2023-08-02T18:07:31.219Z,1.33
2023-08-02T18:09:57.965Z,1.65
2023-08-02T18:12:24.874Z,1.05
2023-08-02T18:14:51.579Z,0.93
2023-08-02T18:17:18.432Z,1.20
2023-08-02T18:19:46.678Z,1.20
2023-08-02T18:22:13.398Z,1.20
2023-08-02T18:24:42.984Z,1.17
2023-08-02T18:27:10.196Z,1.35
2023-08-02T18:29:36.929Z,1.17
2023-08-02T18:32:04.046Z,1.97
2023-08-02T18:34:30.902Z,1.02
2023-08-02T18:36:57.679Z,1.05
2023-08-02T18:39:24.353Z,1.35
2023-08-02T18:41:51.131Z,0.68
2023-08-02T18:44:17.883Z,1.37
2023-08-02T18:46:44.629Z,0.90
2023-08-02T18:49:11.408Z,1.02
2023-08-02T18:51:38.332Z,1.00
2023-08-02T18:54:05.182Z,1.30
2023-08-02T18:56:31.988Z,0.77
2023-08-02T18:59:00.806Z,1.20
2023-08-02T19:01:27.737Z,0.95
2023-08-02T19:03:56.276Z,1.27
2023-08-02T19:06:23.034Z,1.05
2023-08-02T19:08:51.040Z,0.70
2023-08-02T19:11:23.285Z,1.10
2023-08-02T19:13:51.437Z,2.53
2023-08-02T19:16:18.304Z,1.10
2023-08-02T19:18:45.081Z,0.80
2023-08-02T19:21:15.955Z,0.80
2023-08-02T19:23:44.870Z,0.93
2023-08-02T19:26:13.986Z,1.02
2023-08-02T19:28:41.101Z,0.75
2023-08-02T19:31:08.870Z,0.80
2023-08-02T19:33:41.077Z,1.00
2023-08-02T19:36:08.351Z,1.10
2023-08-02T19:38:35.066Z,0.55
2023-08-02T19:41:01.981Z,0.70
2023-08-02T19:43:28.795Z,0.88
2023-08-02T19:45:56.932Z,1.57
2023-08-02T19:48:24.702Z,1.10
2023-08-02T19:50:51.699Z,0.63
2023-08-02T19:53:18.497Z,1.00
2023-08-02T19:55:45.482Z,0.98
2023-08-02T19:58:12.493Z,0.97
2023-08-02T20:00:44.552Z,1.30
2023-08-02T20:03:11.353Z,0.70
2023-08-02T20:05:46.903Z,0.70
2023-08-02T20:08:22.098Z,0.85
2023-08-02T20:11:00.274Z,1.17
2023-08-02T20:13:35.532Z,0.63
2023-08-02T20:16:15.872Z,0.93
2023-08-02T20:18:42.706Z,0.57
2023-08-02T20:21:20.344Z,0.80
2023-08-02T20:23:49.202Z,0.80
2023-08-02T20:26:17.791Z,0.75
2023-08-02T20:28:46.639Z,0.70
2023-08-02T20:31:18.390Z,1.75
2023-08-02T20:33:46.965Z,1.08
2023-08-02T20:36:14.949Z,0.53
2023-08-02T20:38:46.972Z,0.50
2023-08-02T20:41:23.611Z,1.45
2023-08-02T20:43:51.954Z,1.17
2023-08-02T20:46:26.160Z,0.60
2023-08-02T20:49:00.805Z,1.00
2023-08-02T20:51:31.185Z,0.57
2023-08-02T20:53:59.848Z,0.73
2023-08-02T20:56:26.802Z,0.70
2023-08-02T20:58:53.599Z,0.60
2023-08-02T21:01:20.392Z,0.77
2023-08-02T21:03:48.333Z,0.70
2023-08-02T21:06:16.838Z,1.60
2023-08-02T21:08:46.904Z,1.10
2023-08-02T21:11:14.099Z,0.70
2023-08-02T21:13:40.934Z,0.80
2023-08-02T21:16:10.687Z,0.40
2023-08-02T21:18:39.989Z,0.80
2023-08-02T21:21:06.753Z,0.68
2023-08-02T21:23:33.957Z,0.52
2023-08-02T21:26:00.737Z,0.50
2023-08-02T21:28:30.890Z,1.00
2023-08-02T21:31:01.158Z,0.70
2023-08-02T21:33:35.075Z,1.23
2023-08-02T21:36:02.432Z,0.95
2023-08-02T21:38:33.968Z,0.87
2023-08-02T21:41:05.555Z,0.68
2023-08-02T21:43:34.039Z,0.75
2023-08-02T21:46:11.574Z,0.70
2023-08-02T21:48:45.753Z,0.50
2023-08-02T21:51:13.781Z,0.70
2023-08-02T21:53:51.483Z,0.80
2023-08-02T21:56:19.378Z,0.60
2023-08-02T21:58:46.402Z,1.00
2023-08-02T22:01:19.551Z,1.20
2023-08-02T22:03:47.292Z,1.00
2023-08-02T23:16:45.002Z,1.33
2023-08-02T23:19:17.826Z,1.92
2023-08-02T23:21:45.747Z,1.65
2023-08-02T23:24:13.491Z,2.10
2023-08-02T23:26:40.315Z,2.03
2023-08-02T23:29:07.065Z,1.83
2023-08-02T23:31:34.153Z,1.98
2023-08-02T23:34:01.042Z,2.70
2023-08-02T23:36:28.189Z,1.30
2023-08-02T23:38:54.942Z,1.70
2023-08-02T23:41:21.729Z,1.13
2023-08-02T23:43:48.558Z,2.00
2023-08-02T23:46:15.402Z,1.25
2023-08-02T23:48:42.242Z,1.52
2023-08-02T23:51:09.011Z,1.45
2023-08-02T23:53:35.737Z,1.60
2023-08-02T23:56:02.533Z,1.40
2023-08-02T23:58:29.315Z,0.90
